This is the latest recevied weather packets stored in our database for station/object IW4DZV-13. If no packets are shown the sender has not sent any weather packets the latest 10 day(s).
| Time | Temp. | Humidity | Pressure | Rain* | Wind** | Luminosity | Snow |
|---|---|---|---|---|---|---|---|
| 1777288561 | 24.44° C | 50% | 1016.8 hPa | 0 mm | - | 814 W/m² | - |
| 1777287654 | 24.44° C | 49% | 1016.9 hPa | 0 mm | - | 816 W/m² | - |
| 1777286751 | 23.89° C | 51% | 1017 hPa | 0 mm | - | 809 W/m² | - |
| 1777285855 | 23.89° C | 54% | 1017.2 hPa | 0 mm | - | 803 W/m² | - |
| 1777284947 | 23.33° C | 52% | 1017.3 hPa | 0 mm | - | 791 W/m² | - |
| 1777284046 | 23.33° C | 50% | 1017.3 hPa | 0 mm | - | 786 W/m² | - |
| 1777283142 | 23.33° C | 54% | 1017.5 hPa | 0 mm | - | 773 W/m² | - |
| 1777282239 | 22.22° C | 55% | 1017.8 hPa | 0 mm | - | 756 W/m² | - |
| 1777281348 | 22.22° C | 53% | 1017.9 hPa | 0 mm | - | 731 W/m² | - |
| 1777280442 | 21.67° C | 56% | 1018.1 hPa | 0 mm | - | 701 W/m² | - |
| 1777279529 | 21.11° C | 56% | 1018.2 hPa | 0 mm | - | 664 W/m² | - |
| 1777278626 | 20.56° C | 61% | 1018.1 hPa | 0 mm | - | 647 W/m² | - |
| 1777277725 | 20° C | 60% | 1018 hPa | 0 mm | - | 598 W/m² | - |
| 1777276833 | 20° C | 60% | 1018 hPa | 0 mm | - | 575 W/m² | - |
| 1777275918 | 19.44° C | 61% | 1017.9 hPa | 0 mm | - | 527 W/m² | - |
| 1777275013 | 19.44° C | 62% | 1018 hPa | 0 mm | - | 490 W/m² | - |
| 1777274111 | 18.89° C | 64% | 1018.2 hPa | 0 mm | - | 439 W/m² | - |
| 1777273205 | 18.33° C | 66% | 1018.1 hPa | 0 mm | - | 410 W/m² | - |
| 1777272300 | 17.78° C | 68% | 1018.1 hPa | 0 mm | - | 364 W/m² | - |
| 1777271457 | 17.22° C | 71% | 1017.9 hPa | 0 mm | - | 322 W/m² | - |
| 1777270557 | 16.67° C | 74% | 1017.9 hPa | 0 mm | - | 276 W/m² | - |
| 1777269648 | 15.56° C | 81% | 1017.8 hPa | 0 mm | - | 229 W/m² | - |
| 1777268749 | 14.44° C | 89% | 1017.8 hPa | 0 mm | - | 179 W/m² | - |
| 1777267843 | 13.89° C | 92% | 1017.8 hPa | 0 mm | - | 135 W/m² | - |
| 1777266939 | 12.78° C | 92% | 1017.6 hPa | 0 mm | - | 91 W/m² | - |
* Rain since midnight (hover to see other rain measurements)
** Current wind speed in m/s (hover to see current wind gust speed)